sensor_id;sensor_type;location;lat;lon;timestamp;P1;durP1;ratioP1;P2;durP2;ratioP2
58384;SDS011;44185;47.844;8.966;2023-02-12T00:01:25;35.00;;;18.45;;
58384;SDS011;44185;47.844;8.966;2023-02-12T00:03:51;33.15;;;17.25;;
58384;SDS011;44185;47.844;8.966;2023-02-12T00:06:17;33.45;;;17.90;;
58384;SDS011;44185;47.844;8.966;2023-02-12T00:08:43;36.05;;;17.27;;
58384;SDS011;44185;47.844;8.966;2023-02-12T00:11:09;34.17;;;15.40;;
58384;SDS011;44185;47.844;8.966;2023-02-12T00:13:36;33.33;;;17.92;;
58384;SDS011;44185;47.844;8.966;2023-02-12T00:16:06;38.70;;;16.80;;
58384;SDS011;44185;47.844;8.966;2023-02-12T00:18:33;35.55;;;16.73;;
58384;SDS011;44185;47.844;8.966;2023-02-12T00:20:59;35.08;;;15.64;;
58384;SDS011;44185;47.844;8.966;2023-02-12T00:23:26;33.63;;;15.63;;
58384;SDS011;44185;47.844;8.966;2023-02-12T00:25:52;34.88;;;15.88;;
58384;SDS011;44185;47.844;8.966;2023-02-12T00:28:17;31.88;;;15.57;;
58384;SDS011;44185;47.844;8.966;2023-02-12T00:30:43;31.10;;;15.93;;
58384;SDS011;44185;47.844;8.966;2023-02-12T00:33:08;31.85;;;15.75;;
58384;SDS011;44185;47.844;8.966;2023-02-12T00:35:34;32.40;;;16.23;;
58384;SDS011;44185;47.844;8.966;2023-02-12T00:37:59;31.75;;;15.63;;
58384;SDS011;44185;47.844;8.966;2023-02-12T00:40:26;27.77;;;14.48;;
58384;SDS011;44185;47.844;8.966;2023-02-12T00:42:52;30.33;;;14.73;;
58384;SDS011;44185;47.844;8.966;2023-02-12T00:45:17;32.08;;;15.18;;
58384;SDS011;44185;47.844;8.966;2023-02-12T00:47:43;31.10;;;16.33;;
58384;SDS011;44185;47.844;8.966;2023-02-12T00:50:09;32.20;;;14.45;;
58384;SDS011;44185;47.844;8.966;2023-02-12T00:52:34;30.58;;;14.05;;
58384;SDS011;44185;47.844;8.966;2023-02-12T00:55:00;29.08;;;12.63;;
58384;SDS011;44185;47.844;8.966;2023-02-12T00:57:27;28.65;;;14.07;;
58384;SDS011;44185;47.844;8.966;2023-02-12T00:59:52;27.85;;;13.75;;
58384;SDS011;44185;47.844;8.966;2023-02-12T01:02:18;32.10;;;14.43;;
58384;SDS011;44185;47.844;8.966;2023-02-12T01:04:43;27.30;;;14.50;;
58384;SDS011;44185;47.844;8.966;2023-02-12T01:07:09;27.92;;;13.13;;
58384;SDS011;44185;47.844;8.966;2023-02-12T01:09:34;32.03;;;13.27;;
58384;SDS011;44185;47.844;8.966;2023-02-12T01:12:00;28.88;;;12.88;;
58384;SDS011;44185;47.844;8.966;2023-02-12T01:14:27;27.48;;;12.75;;
58384;SDS011;44185;47.844;8.966;2023-02-12T01:16:53;25.70;;;12.73;;
58384;SDS011;44185;47.844;8.966;2023-02-12T01:19:18;25.20;;;12.38;;
58384;SDS011;44185;47.844;8.966;2023-02-12T01:21:44;24.60;;;11.70;;
58384;SDS011;44185;47.844;8.966;2023-02-12T01:24:09;23.00;;;10.75;;
58384;SDS011;44185;47.844;8.966;2023-02-12T01:26:34;22.30;;;11.80;;
58384;SDS011;44185;47.844;8.966;2023-02-12T01:29:00;23.10;;;10.45;;
58384;SDS011;44185;47.844;8.966;2023-02-12T01:31:30;25.05;;;11.38;;
58384;SDS011;44185;47.844;8.966;2023-02-12T01:33:58;24.55;;;11.15;;
58384;SDS011;44185;47.844;8.966;2023-02-12T01:36:25;23.35;;;11.30;;
58384;SDS011;44185;47.844;8.966;2023-02-12T01:38:51;26.02;;;11.60;;
58384;SDS011;44185;47.844;8.966;2023-02-12T01:41:18;24.23;;;10.32;;
58384;SDS011;44185;47.844;8.966;2023-02-12T01:43:45;21.67;;;10.50;;
58384;SDS011;44185;47.844;8.966;2023-02-12T01:46:31;23.23;;;10.25;;
58384;SDS011;44185;47.844;8.966;2023-02-12T01:48:57;29.85;;;11.82;;
58384;SDS011;44185;47.844;8.966;2023-02-12T01:51:23;22.52;;;9.82;;
58384;SDS011;44185;47.844;8.966;2023-02-12T01:53:52;23.42;;;10.93;;
58384;SDS011;44185;47.844;8.966;2023-02-12T01:56:19;24.10;;;11.40;;
58384;SDS011;44185;47.844;8.966;2023-02-12T01:58:45;23.83;;;10.02;;
58384;SDS011;44185;47.844;8.966;2023-02-12T02:01:15;20.90;;;10.50;;
58384;SDS011;44185;47.844;8.966;2023-02-12T02:03:45;23.77;;;10.13;;
58384;SDS011;44185;47.844;8.966;2023-02-12T02:06:14;21.17;;;9.80;;
58384;SDS011;44185;47.844;8.966;2023-02-12T02:08:43;22.00;;;9.80;;
58384;SDS011;44185;47.844;8.966;2023-02-12T02:11:10;22.70;;;10.55;;
58384;SDS011;44185;47.844;8.966;2023-02-12T02:13:35;19.38;;;9.10;;
58384;SDS011;44185;47.844;8.966;2023-02-12T02:16:03;24.50;;;10.32;;
58384;SDS011;44185;47.844;8.966;2023-02-12T02:18:37;22.38;;;9.45;;
58384;SDS011;44185;47.844;8.966;2023-02-12T02:21:21;24.20;;;11.05;;
58384;SDS011;44185;47.844;8.966;2023-02-12T02:27:06;23.33;;;10.60;;
58384;SDS011;44185;47.844;8.966;2023-02-12T02:29:45;22.20;;;9.45;;
58384;SDS011;44185;47.844;8.966;2023-02-12T02:32:32;24.30;;;9.25;;
58384;SDS011;44185;47.844;8.966;2023-02-12T02:35:03;21.42;;;9.63;;
58384;SDS011;44185;47.844;8.966;2023-02-12T02:37:36;20.75;;;9.38;;
58384;SDS011;44185;47.844;8.966;2023-02-12T02:40:06;25.70;;;11.48;;
58384;SDS011;44185;47.844;8.966;2023-02-12T02:42:38;22.02;;;9.50;;
58384;SDS011;44185;47.844;8.966;2023-02-12T02:45:10;22.08;;;9.30;;
58384;SDS011;44185;47.844;8.966;2023-02-12T02:47:42;24.42;;;10.85;;
58384;SDS011;44185;47.844;8.966;2023-02-12T02:50:13;21.33;;;9.70;;
58384;SDS011;44185;47.844;8.966;2023-02-12T02:52:42;18.38;;;8.98;;
58384;SDS011;44185;47.844;8.966;2023-02-12T02:55:13;22.55;;;10.38;;
58384;SDS011;44185;47.844;8.966;2023-02-12T02:57:44;24.67;;;9.80;;
58384;SDS011;44185;47.844;8.966;2023-02-12T03:00:13;22.25;;;9.57;;
58384;SDS011;44185;47.844;8.966;2023-02-12T03:02:47;20.80;;;9.48;;
58384;SDS011;44185;47.844;8.966;2023-02-12T03:05:17;18.77;;;9.15;;
58384;SDS011;44185;47.844;8.966;2023-02-12T03:07:48;21.23;;;8.50;;
58384;SDS011;44185;47.844;8.966;2023-02-12T03:10:17;20.92;;;8.85;;
58384;SDS011;44185;47.844;8.966;2023-02-12T03:12:46;21.92;;;8.90;;
58384;SDS011;44185;47.844;8.966;2023-02-12T03:15:17;20.90;;;9.07;;
58384;SDS011;44185;47.844;8.966;2023-02-12T03:17:48;19.20;;;8.60;;
58384;SDS011;44185;47.844;8.966;2023-02-12T03:20:16;17.08;;;9.07;;
58384;SDS011;44185;47.844;8.966;2023-02-12T03:22:43;19.33;;;8.10;;
58384;SDS011;44185;47.844;8.966;2023-02-12T03:25:15;20.50;;;9.18;;
58384;SDS011;44185;47.844;8.966;2023-02-12T03:27:46;19.13;;;8.60;;
58384;SDS011;44185;47.844;8.966;2023-02-12T03:30:18;20.60;;;9.15;;
58384;SDS011;44185;47.844;8.966;2023-02-12T03:32:45;22.83;;;9.90;;
58384;SDS011;44185;47.844;8.966;2023-02-12T03:35:20;22.13;;;9.68;;
58384;SDS011;44185;47.844;8.966;2023-02-12T03:37:55;19.38;;;9.35;;
58384;SDS011;44185;47.844;8.966;2023-02-12T03:40:28;19.95;;;8.75;;
58384;SDS011;44185;47.844;8.966;2023-02-12T03:42:58;23.13;;;9.25;;
58384;SDS011;44185;47.844;8.966;2023-02-12T03:45:33;19.40;;;9.23;;
58384;SDS011;44185;47.844;8.966;2023-02-12T03:48:07;21.17;;;9.32;;
58384;SDS011;44185;47.844;8.966;2023-02-12T03:50:38;21.70;;;9.55;;
58384;SDS011;44185;47.844;8.966;2023-02-12T03:53:08;21.42;;;8.93;;
58384;SDS011;44185;47.844;8.966;2023-02-12T03:55:35;23.88;;;9.77;;
58384;SDS011;44185;47.844;8.966;2023-02-12T03:58:05;18.45;;;8.63;;
58384;SDS011;44185;47.844;8.966;2023-02-12T04:00:35;24.40;;;9.70;;
58384;SDS011;44185;47.844;8.966;2023-02-12T04:03:02;20.27;;;8.23;;
58384;SDS011;44185;47.844;8.966;2023-02-12T04:05:30;22.92;;;9.23;;
58384;SDS011;44185;47.844;8.966;2023-02-12T04:07:55;20.27;;;8.57;;
58384;SDS011;44185;47.844;8.966;2023-02-12T04:10:24;19.30;;;9.50;;
58384;SDS011;44185;47.844;8.966;2023-02-12T04:13:00;18.40;;;8.77;;
58384;SDS011;44185;47.844;8.966;2023-02-12T04:15:42;20.25;;;9.90;;
58384;SDS011;44185;47.844;8.966;2023-02-12T04:18:26;19.67;;;8.93;;
58384;SDS011;44185;47.844;8.966;2023-02-12T04:21:06;18.27;;;8.40;;
58384;SDS011;44185;47.844;8.966;2023-02-12T04:23:44;18.90;;;9.13;;
58384;SDS011;44185;47.844;8.966;2023-02-12T04:26:20;19.63;;;9.05;;
58384;SDS011;44185;47.844;8.966;2023-02-12T04:28:53;19.73;;;8.97;;
58384;SDS011;44185;47.844;8.966;2023-02-12T04:31:30;19.80;;;8.73;;
58384;SDS011;44185;47.844;8.966;2023-02-12T04:34:03;21.05;;;8.15;;
58384;SDS011;44185;47.844;8.966;2023-02-12T04:36:36;21.35;;;9.60;;
58384;SDS011;44185;47.844;8.966;2023-02-12T04:39:05;16.85;;;8.45;;
58384;SDS011;44185;47.844;8.966;2023-02-12T04:41:35;17.13;;;7.45;;
58384;SDS011;44185;47.844;8.966;2023-02-12T04:44:12;18.77;;;7.60;;
58384;SDS011;44185;47.844;8.966;2023-02-12T04:46:42;20.40;;;8.45;;
58384;SDS011;44185;47.844;8.966;2023-02-12T04:49:10;21.40;;;9.27;;
58384;SDS011;44185;47.844;8.966;2023-02-12T04:51:40;19.67;;;8.27;;
58384;SDS011;44185;47.844;8.966;2023-02-12T04:54:06;19.15;;;7.97;;
58384;SDS011;44185;47.844;8.966;2023-02-12T04:56:31;35.13;;;13.77;;
58384;SDS011;44185;47.844;8.966;2023-02-12T04:58:56;28.38;;;12.13;;
58384;SDS011;44185;47.844;8.966;2023-02-12T05:01:22;28.17;;;12.57;;
58384;SDS011;44185;47.844;8.966;2023-02-12T05:03:48;28.88;;;12.25;;
58384;SDS011;44185;47.844;8.966;2023-02-12T05:06:13;26.45;;;11.45;;
58384;SDS011;44185;47.844;8.966;2023-02-12T05:08:40;28.55;;;10.60;;
58384;SDS011;44185;47.844;8.966;2023-02-12T05:11:06;24.40;;;10.63;;
58384;SDS011;44185;47.844;8.966;2023-02-12T05:13:33;26.25;;;11.20;;
58384;SDS011;44185;47.844;8.966;2023-02-12T05:15:58;23.88;;;9.45;;
58384;SDS011;44185;47.844;8.966;2023-02-12T05:18:24;26.00;;;11.32;;
58384;SDS011;44185;47.844;8.966;2023-02-12T05:20:53;19.27;;;9.82;;
58384;SDS011;44185;47.844;8.966;2023-02-12T05:23:19;25.52;;;10.70;;
58384;SDS011;44185;47.844;8.966;2023-02-12T05:25:46;21.05;;;9.13;;
58384;SDS011;44185;47.844;8.966;2023-02-12T05:28:11;18.35;;;8.13;;
58384;SDS011;44185;47.844;8.966;2023-02-12T05:30:37;22.70;;;9.35;;
58384;SDS011;44185;47.844;8.966;2023-02-12T05:33:02;20.63;;;8.98;;
58384;SDS011;44185;47.844;8.966;2023-02-12T05:35:28;18.75;;;8.20;;
58384;SDS011;44185;47.844;8.966;2023-02-12T05:37:53;23.52;;;8.48;;
58384;SDS011;44185;47.844;8.966;2023-02-12T05:40:18;24.48;;;7.97;;
58384;SDS011;44185;47.844;8.966;2023-02-12T05:42:45;16.35;;;8.18;;
58384;SDS011;44185;47.844;8.966;2023-02-12T05:45:11;18.27;;;7.82;;
58384;SDS011;44185;47.844;8.966;2023-02-12T05:47:36;20.40;;;8.42;;
58384;SDS011;44185;47.844;8.966;2023-02-12T05:50:02;23.55;;;9.25;;
58384;SDS011;44185;47.844;8.966;2023-02-12T05:52:27;19.02;;;7.72;;
58384;SDS011;44185;47.844;8.966;2023-02-12T05:54:53;20.85;;;8.10;;
58384;SDS011;44185;47.844;8.966;2023-02-12T05:57:18;20.92;;;8.60;;
58384;SDS011;44185;47.844;8.966;2023-02-12T05:59:45;21.08;;;8.20;;
58384;SDS011;44185;47.844;8.966;2023-02-12T06:02:10;17.08;;;7.50;;
58384;SDS011;44185;47.844;8.966;2023-02-12T06:04:36;20.27;;;8.90;;
58384;SDS011;44185;47.844;8.966;2023-02-12T06:07:01;16.83;;;8.00;;
58384;SDS011;44185;47.844;8.966;2023-02-12T06:09:27;15.73;;;7.18;;
58384;SDS011;44185;47.844;8.966;2023-02-12T06:11:53;20.42;;;9.02;;
58384;SDS011;44185;47.844;8.966;2023-02-12T06:14:19;21.52;;;10.02;;
58384;SDS011;44185;47.844;8.966;2023-02-12T06:16:46;27.38;;;9.60;;
58384;SDS011;44185;47.844;8.966;2023-02-12T06:19:13;24.05;;;9.88;;
58384;SDS011;44185;47.844;8.966;2023-02-12T06:21:39;24.55;;;10.40;;
58384;SDS011;44185;47.844;8.966;2023-02-12T06:24:04;22.83;;;10.45;;
58384;SDS011;44185;47.844;8.966;2023-02-12T06:26:30;24.30;;;9.30;;
58384;SDS011;44185;47.844;8.966;2023-02-12T06:28:55;24.26;;;9.94;;
58384;SDS011;44185;47.844;8.966;2023-02-12T06:31:21;21.52;;;10.27;;
58384;SDS011;44185;47.844;8.966;2023-02-12T06:33:50;22.08;;;11.02;;
58384;SDS011;44185;47.844;8.966;2023-02-12T06:36:16;23.35;;;11.18;;
58384;SDS011;44185;47.844;8.966;2023-02-12T06:38:42;26.70;;;12.65;;
58384;SDS011;44185;47.844;8.966;2023-02-12T06:41:07;28.25;;;12.30;;
58384;SDS011;44185;47.844;8.966;2023-02-12T06:43:33;25.30;;;12.07;;
58384;SDS011;44185;47.844;8.966;2023-02-12T06:45:59;25.83;;;11.00;;
58384;SDS011;44185;47.844;8.966;2023-02-12T06:48:25;26.25;;;12.07;;
58384;SDS011;44185;47.844;8.966;2023-02-12T06:50:52;25.00;;;11.90;;
58384;SDS011;44185;47.844;8.966;2023-02-12T06:53:17;27.42;;;11.35;;
58384;SDS011;44185;47.844;8.966;2023-02-12T06:55:43;25.50;;;12.38;;
58384;SDS011;44185;47.844;8.966;2023-02-12T06:58:08;32.60;;;14.00;;
58384;SDS011;44185;47.844;8.966;2023-02-12T07:00:33;19.08;;;8.52;;
58384;SDS011;44185;47.844;8.966;2023-02-12T07:02:59;21.90;;;10.35;;
58384;SDS011;44185;47.844;8.966;2023-02-12T07:05:24;25.92;;;12.28;;
58384;SDS011;44185;47.844;8.966;2023-02-12T07:07:51;26.42;;;12.52;;
58384;SDS011;44185;47.844;8.966;2023-02-12T07:10:17;28.20;;;12.15;;
58384;SDS011;44185;47.844;8.966;2023-02-12T07:12:42;24.95;;;10.60;;
58384;SDS011;44185;47.844;8.966;2023-02-12T07:15:09;24.80;;;10.82;;
58384;SDS011;44185;47.844;8.966;2023-02-12T07:17:34;18.92;;;10.38;;
58384;SDS011;44185;47.844;8.966;2023-02-12T07:20:00;30.67;;;13.05;;
58384;SDS011;44185;47.844;8.966;2023-02-12T07:22:25;26.08;;;13.65;;
58384;SDS011;44185;47.844;8.966;2023-02-12T07:24:52;44.28;;;22.92;;
58384;SDS011;44185;47.844;8.966;2023-02-12T07:27:17;29.15;;;13.88;;
58384;SDS011;44185;47.844;8.966;2023-02-12T07:29:43;32.92;;;15.25;;
58384;SDS011;44185;47.844;8.966;2023-02-12T07:32:08;33.65;;;14.32;;
58384;SDS011;44185;47.844;8.966;2023-02-12T07:34:34;27.10;;;12.43;;
58384;SDS011;44185;47.844;8.966;2023-02-12T07:36:59;27.70;;;11.32;;
58384;SDS011;44185;47.844;8.966;2023-02-12T07:39:25;28.80;;;11.57;;
58384;SDS011;44185;47.844;8.966;2023-02-12T07:41:51;34.70;;;13.95;;
58384;SDS011;44185;47.844;8.966;2023-02-12T07:44:17;26.52;;;11.05;;
58384;SDS011;44185;47.844;8.966;2023-02-12T07:46:43;24.56;;;9.46;;
58384;SDS011;44185;47.844;8.966;2023-02-12T07:49:10;27.67;;;11.35;;
58384;SDS011;44185;47.844;8.966;2023-02-12T07:51:37;26.75;;;11.07;;
58384;SDS011;44185;47.844;8.966;2023-02-12T07:54:03;28.30;;;10.48;;
58384;SDS011;44185;47.844;8.966;2023-02-12T07:56:29;25.38;;;10.95;;
58384;SDS011;44185;47.844;8.966;2023-02-12T07:58:59;25.10;;;8.18;;
58384;SDS011;44185;47.844;8.966;2023-02-12T08:01:26;19.40;;;7.72;;
58384;SDS011;44185;47.844;8.966;2023-02-12T08:03:53;22.52;;;8.20;;
58384;SDS011;44185;47.844;8.966;2023-02-12T08:06:22;19.52;;;7.82;;
58384;SDS011;44185;47.844;8.966;2023-02-12T08:08:49;22.15;;;8.82;;
58384;SDS011;44185;47.844;8.966;2023-02-12T08:11:16;22.88;;;9.40;;
58384;SDS011;44185;47.844;8.966;2023-02-12T08:13:41;26.15;;;9.60;;
58384;SDS011;44185;47.844;8.966;2023-02-12T08:16:09;22.90;;;8.73;;
58384;SDS011;44185;47.844;8.966;2023-02-12T08:18:37;27.38;;;8.52;;
58384;SDS011;44185;47.844;8.966;2023-02-12T08:21:03;23.35;;;8.73;;
58384;SDS011;44185;47.844;8.966;2023-02-12T08:23:29;19.40;;;8.25;;
58384;SDS011;44185;47.844;8.966;2023-02-12T08:26:03;18.35;;;6.80;;
58384;SDS011;44185;47.844;8.966;2023-02-12T08:28:29;17.08;;;7.47;;
58384;SDS011;44185;47.844;8.966;2023-02-12T08:30:58;16.67;;;6.88;;
58384;SDS011;44185;47.844;8.966;2023-02-12T08:33:25;17.35;;;6.10;;
58384;SDS011;44185;47.844;8.966;2023-02-12T08:35:58;22.55;;;7.28;;
58384;SDS011;44185;47.844;8.966;2023-02-12T08:38:25;19.90;;;7.68;;
58384;SDS011;44185;47.844;8.966;2023-02-12T08:40:50;19.77;;;7.38;;
58384;SDS011;44185;47.844;8.966;2023-02-12T08:43:15;13.02;;;5.60;;
58384;SDS011;44185;47.844;8.966;2023-02-12T08:45:41;16.45;;;7.20;;
58384;SDS011;44185;47.844;8.966;2023-02-12T08:48:06;17.30;;;7.90;;
58384;SDS011;44185;47.844;8.966;2023-02-12T08:50:34;20.80;;;8.52;;
58384;SDS011;44185;47.844;8.966;2023-02-12T08:52:59;22.67;;;10.48;;
58384;SDS011;44185;47.844;8.966;2023-02-12T08:55:25;24.30;;;8.70;;
58384;SDS011;44185;47.844;8.966;2023-02-12T08:57:50;19.77;;;8.90;;
58384;SDS011;44185;47.844;8.966;2023-02-12T09:00:16;16.25;;;6.38;;
58384;SDS011;44185;47.844;8.966;2023-02-12T09:02:42;16.80;;;7.07;;
58384;SDS011;44185;47.844;8.966;2023-02-12T09:05:08;19.33;;;8.27;;
58384;SDS011;44185;47.844;8.966;2023-02-12T09:07:34;21.35;;;7.97;;
58384;SDS011;44185;47.844;8.966;2023-02-12T09:10:00;20.85;;;6.95;;
58384;SDS011;44185;47.844;8.966;2023-02-12T09:12:25;17.83;;;7.28;;
58384;SDS011;44185;47.844;8.966;2023-02-12T09:14:51;23.15;;;8.70;;
58384;SDS011;44185;47.844;8.966;2023-02-12T09:17:16;14.38;;;5.80;;
58384;SDS011;44185;47.844;8.966;2023-02-12T09:19:42;14.25;;;5.35;;
58384;SDS011;44185;47.844;8.966;2023-02-12T09:22:08;15.40;;;6.57;;
58384;SDS011;44185;47.844;8.966;2023-02-12T09:24:35;16.08;;;5.70;;
58384;SDS011;44185;47.844;8.966;2023-02-12T09:27:00;16.70;;;7.13;;
58384;SDS011;44185;47.844;8.966;2023-02-12T09:29:26;18.38;;;7.03;;
58384;SDS011;44185;47.844;8.966;2023-02-12T09:31:51;19.40;;;8.13;;
58384;SDS011;44185;47.844;8.966;2023-02-12T09:34:17;16.73;;;7.03;;
58384;SDS011;44185;47.844;8.966;2023-02-12T09:36:42;20.85;;;7.80;;
58384;SDS011;44185;47.844;8.966;2023-02-12T09:39:08;21.48;;;7.85;;
58384;SDS011;44185;47.844;8.966;2023-02-12T09:41:40;20.83;;;8.63;;
58384;SDS011;44185;47.844;8.966;2023-02-12T09:44:26;19.60;;;8.32;;
58384;SDS011;44185;47.844;8.966;2023-02-12T09:46:57;18.38;;;7.28;;
58384;SDS011;44185;47.844;8.966;2023-02-12T09:49:30;16.45;;;5.75;;
58384;SDS011;44185;47.844;8.966;2023-02-12T09:52:10;14.55;;;6.25;;
58384;SDS011;44185;47.844;8.966;2023-02-12T09:54:38;18.52;;;7.18;;
58384;SDS011;44185;47.844;8.966;2023-02-12T09:57:10;19.75;;;7.57;;
58384;SDS011;44185;47.844;8.966;2023-02-12T09:59:42;19.77;;;6.75;;
58384;SDS011;44185;47.844;8.966;2023-02-12T10:02:12;17.35;;;7.13;;
58384;SDS011;44185;47.844;8.966;2023-02-12T10:04:39;16.00;;;6.72;;
58384;SDS011;44185;47.844;8.966;2023-02-12T10:07:07;18.85;;;7.32;;
58384;SDS011;44185;47.844;8.966;2023-02-12T10:09:48;18.77;;;6.97;;
58384;SDS011;44185;47.844;8.966;2023-02-12T10:12:27;18.48;;;7.78;;
58384;SDS011;44185;47.844;8.966;2023-02-12T10:15:07;11.90;;;5.18;;
58384;SDS011;44185;47.844;8.966;2023-02-12T10:17:46;18.25;;;6.97;;
58384;SDS011;44185;47.844;8.966;2023-02-12T10:20:25;17.92;;;7.10;;
58384;SDS011;44185;47.844;8.966;2023-02-12T10:23:15;17.23;;;6.82;;
58384;SDS011;44185;47.844;8.966;2023-02-12T10:25:52;17.92;;;7.55;;
58384;SDS011;44185;47.844;8.966;2023-02-12T10:28:23;22.58;;;8.73;;
58384;SDS011;44185;47.844;8.966;2023-02-12T10:30:51;21.58;;;8.55;;
58384;SDS011;44185;47.844;8.966;2023-02-12T10:33:23;19.17;;;8.30;;
58384;SDS011;44185;47.844;8.966;2023-02-12T10:35:52;15.02;;;6.18;;
58384;SDS011;44185;47.844;8.966;2023-02-12T10:38:23;17.10;;;6.88;;
58384;SDS011;44185;47.844;8.966;2023-02-12T10:40:51;20.48;;;8.93;;
58384;SDS011;44185;47.844;8.966;2023-02-12T10:43:17;25.25;;;10.30;;
58384;SDS011;44185;47.844;8.966;2023-02-12T10:45:44;24.17;;;9.50;;
58384;SDS011;44185;47.844;8.966;2023-02-12T10:48:10;26.00;;;8.77;;
58384;SDS011;44185;47.844;8.966;2023-02-12T10:50:45;22.60;;;9.05;;
58384;SDS011;44185;47.844;8.966;2023-02-12T10:53:17;22.25;;;9.68;;
58384;SDS011;44185;47.844;8.966;2023-02-12T10:55:46;21.67;;;9.85;;
58384;SDS011;44185;47.844;8.966;2023-02-12T10:58:16;18.38;;;7.95;;
58384;SDS011;44185;47.844;8.966;2023-02-12T11:00:46;21.13;;;8.95;;
58384;SDS011;44185;47.844;8.966;2023-02-12T11:03:20;16.95;;;7.18;;
58384;SDS011;44185;47.844;8.966;2023-02-12T11:05:47;19.52;;;7.88;;
58384;SDS011;44185;47.844;8.966;2023-02-12T11:08:25;13.83;;;6.90;;
58384;SDS011;44185;47.844;8.966;2023-02-12T11:10:53;20.27;;;7.20;;
58384;SDS011;44185;47.844;8.966;2023-02-12T11:13:21;15.25;;;5.38;;
58384;SDS011;44185;47.844;8.966;2023-02-12T11:15:50;13.13;;;6.82;;
58384;SDS011;44185;47.844;8.966;2023-02-12T11:18:19;16.38;;;7.70;;
58384;SDS011;44185;47.844;8.966;2023-02-12T11:20:48;17.38;;;7.43;;
58384;SDS011;44185;47.844;8.966;2023-02-12T11:23:23;14.48;;;6.35;;
58384;SDS011;44185;47.844;8.966;2023-02-12T11:25:54;19.25;;;7.10;;
58384;SDS011;44185;47.844;8.966;2023-02-12T11:28:21;12.57;;;6.28;;
58384;SDS011;44185;47.844;8.966;2023-02-12T11:30:52;15.07;;;6.75;;
58384;SDS011;44185;47.844;8.966;2023-02-12T11:33:21;14.65;;;5.93;;
58384;SDS011;44185;47.844;8.966;2023-02-12T11:35:55;14.32;;;5.40;;
58384;SDS011;44185;47.844;8.966;2023-02-12T11:38:26;19.90;;;10.32;;
58384;SDS011;44185;47.844;8.966;2023-02-12T11:40:56;16.33;;;5.90;;
58384;SDS011;44185;47.844;8.966;2023-02-12T11:43:24;10.40;;;4.38;;
58384;SDS011;44185;47.844;8.966;2023-02-12T11:45:53;12.32;;;4.90;;
58384;SDS011;44185;47.844;8.966;2023-02-12T11:48:21;13.48;;;5.68;;
58384;SDS011;44185;47.844;8.966;2023-02-12T11:50:49;11.85;;;5.65;;
58384;SDS011;44185;47.844;8.966;2023-02-12T11:53:19;9.15;;;4.25;;
58384;SDS011;44185;47.844;8.966;2023-02-12T11:55:54;11.70;;;5.70;;
58384;SDS011;44185;47.844;8.966;2023-02-12T11:58:23;12.82;;;5.60;;
58384;SDS011;44185;47.844;8.966;2023-02-12T12:00:50;12.65;;;4.55;;
58384;SDS011;44185;47.844;8.966;2023-02-12T12:03:24;12.15;;;5.72;;
58384;SDS011;44185;47.844;8.966;2023-02-12T12:05:54;13.52;;;5.88;;
58384;SDS011;44185;47.844;8.966;2023-02-12T12:08:26;12.38;;;5.18;;
58384;SDS011;44185;47.844;8.966;2023-02-12T12:10:58;13.88;;;6.20;;
58384;SDS011;44185;47.844;8.966;2023-02-12T12:13:31;14.48;;;6.10;;
58384;SDS011;44185;47.844;8.966;2023-02-12T12:16:05;14.38;;;6.10;;
58384;SDS011;44185;47.844;8.966;2023-02-12T12:18:36;15.60;;;5.82;;
58384;SDS011;44185;47.844;8.966;2023-02-12T12:21:11;11.23;;;5.68;;
58384;SDS011;44185;47.844;8.966;2023-02-12T12:23:41;17.38;;;8.02;;
58384;SDS011;44185;47.844;8.966;2023-02-12T12:26:12;13.53;;;5.07;;
58384;SDS011;44185;47.844;8.966;2023-02-12T12:28:43;13.38;;;5.93;;
58384;SDS011;44185;47.844;8.966;2023-02-12T12:31:14;16.55;;;6.35;;
58384;SDS011;44185;47.844;8.966;2023-02-12T12:33:42;13.38;;;6.35;;
58384;SDS011;44185;47.844;8.966;2023-02-12T12:36:25;11.77;;;5.55;;
58384;SDS011;44185;47.844;8.966;2023-02-12T12:39:02;15.48;;;6.93;;
58384;SDS011;44185;47.844;8.966;2023-02-12T12:41:35;13.80;;;5.80;;
58384;SDS011;44185;47.844;8.966;2023-02-12T12:44:14;18.95;;;8.68;;
58384;SDS011;44185;47.844;8.966;2023-02-12T12:46:55;16.73;;;8.32;;
58384;SDS011;44185;47.844;8.966;2023-02-12T12:49:33;21.23;;;9.90;;
58384;SDS011;44185;47.844;8.966;2023-02-12T12:52:11;16.45;;;7.72;;
58384;SDS011;44185;47.844;8.966;2023-02-12T12:54:51;10.15;;;4.70;;
58384;SDS011;44185;47.844;8.966;2023-02-12T13:00:02;12.07;;;5.53;;
58384;SDS011;44185;47.844;8.966;2023-02-12T13:08:51;11.27;;;4.88;;
58384;SDS011;44185;47.844;8.966;2023-02-12T13:11:38;11.27;;;4.65;;
58384;SDS011;44185;47.844;8.966;2023-02-12T13:14:15;10.52;;;4.55;;
58384;SDS011;44185;47.844;8.966;2023-02-12T13:16:53;10.77;;;5.18;;
58384;SDS011;44185;47.844;8.966;2023-02-12T13:19:29;10.02;;;4.63;;
58384;SDS011;44185;47.844;8.966;2023-02-12T13:22:01;7.47;;;3.97;;
58384;SDS011;44185;47.844;8.966;2023-02-12T13:24:35;7.75;;;3.83;;
58384;SDS011;44185;47.844;8.966;2023-02-12T13:27:09;12.43;;;4.55;;
58384;SDS011;44185;47.844;8.966;2023-02-12T13:29:39;9.43;;;4.30;;
58384;SDS011;44185;47.844;8.966;2023-02-12T13:32:11;10.00;;;4.85;;
58384;SDS011;44185;47.844;8.966;2023-02-12T13:34:40;11.15;;;5.13;;
58384;SDS011;44185;47.844;8.966;2023-02-12T13:37:09;10.07;;;4.55;;
58384;SDS011;44185;47.844;8.966;2023-02-12T13:39:40;10.63;;;4.53;;
58384;SDS011;44185;47.844;8.966;2023-02-12T13:42:12;11.23;;;5.13;;
58384;SDS011;44185;47.844;8.966;2023-02-12T13:44:49;8.75;;;4.28;;
58384;SDS011;44185;47.844;8.966;2023-02-12T13:47:24;6.10;;;3.58;;
58384;SDS011;44185;47.844;8.966;2023-02-12T13:50:00;13.70;;;5.95;;
58384;SDS011;44185;47.844;8.966;2023-02-12T13:52:32;9.85;;;4.15;;
58384;SDS011;44185;47.844;8.966;2023-02-12T13:55:16;7.35;;;3.78;;
58384;SDS011;44185;47.844;8.966;2023-02-12T13:57:52;11.80;;;5.22;;
58384;SDS011;44185;47.844;8.966;2023-02-12T14:03:23;9.27;;;4.13;;
58384;SDS011;44185;47.844;8.966;2023-02-12T14:06:02;12.35;;;4.82;;
58384;SDS011;44185;47.844;8.966;2023-02-12T14:08:33;9.57;;;4.40;;
58384;SDS011;44185;47.844;8.966;2023-02-12T14:11:02;8.43;;;4.13;;
58384;SDS011;44185;47.844;8.966;2023-02-12T14:13:30;13.82;;;5.68;;
58384;SDS011;44185;47.844;8.966;2023-02-12T14:16:19;13.60;;;5.50;;
58384;SDS011;44185;47.844;8.966;2023-02-12T14:22:10;10.30;;;4.63;;
58384;SDS011;44185;47.844;8.966;2023-02-12T14:27:29;11.68;;;4.82;;
58384;SDS011;44185;47.844;8.966;2023-02-12T14:32:55;13.18;;;5.05;;
58384;SDS011;44185;47.844;8.966;2023-02-12T14:35:41;11.50;;;5.00;;
58384;SDS011;44185;47.844;8.966;2023-02-12T14:41:24;11.20;;;3.53;;
58384;SDS011;44185;47.844;8.966;2023-02-12T14:43:51;10.35;;;5.07;;
58384;SDS011;44185;47.844;8.966;2023-02-12T14:47:12;10.52;;;4.97;;
58384;SDS011;44185;47.844;8.966;2023-02-12T14:49:41;9.07;;;4.60;;
58384;SDS011;44185;47.844;8.966;2023-02-12T14:52:13;11.60;;;5.30;;
58384;SDS011;44185;47.844;8.966;2023-02-12T14:54:41;9.68;;;4.72;;
58384;SDS011;44185;47.844;8.966;2023-02-12T14:57:08;10.68;;;4.72;;
58384;SDS011;44185;47.844;8.966;2023-02-12T14:59:44;10.32;;;5.30;;
58384;SDS011;44185;47.844;8.966;2023-02-12T15:02:16;13.27;;;5.45;;
58384;SDS011;44185;47.844;8.966;2023-02-12T15:04:47;9.65;;;4.47;;
58384;SDS011;44185;47.844;8.966;2023-02-12T15:07:15;12.90;;;5.72;;
58384;SDS011;44185;47.844;8.966;2023-02-12T15:09:51;13.65;;;6.25;;
58384;SDS011;44185;47.844;8.966;2023-02-12T15:12:23;14.05;;;6.38;;